Time;durP1;ratioP1;P1;durP2;ratioP2;P2;SDS_P1;SDS_P2;PMS_P1;PMS_P2;Temp;Humidity;BMP_temperature;BMP_pressure;BME280_temperature;BME280_humidity;BME280_pressure;Samples;Min_cycle;Max_cycle;Signal;HPM_P1;HPM_P2
2021/01/06 00:01:11;;;;;;;23.63;12.03;;;4.80;91.90;;;;;;5039036;28;20024;-81
2021/01/06 00:03:37;;;;;;;22.57;12.63;;;4.80;91.80;;;;;;5072267;28;20029;-80
2021/01/06 00:06:11;;;;;;;21.37;12.80;;;4.80;91.80;;;;;;5072292;28;20392;-80
2021/01/06 00:08:37;;;;;;;22.40;12.10;;;4.80;91.80;;;;;;5072126;28;20499;-80
2021/01/06 00:11:03;;;;;;;22.00;11.77;;;4.80;91.80;;;;;;5072001;28;20025;-81
2021/01/06 00:13:29;;;;;;;20.30;12.30;;;4.80;91.80;;;;;;5072138;28;20067;-80
2021/01/06 00:15:55;;;;;;;22.07;11.30;;;4.70;91.80;;;;;;5054911;28;20021;-81
2021/01/06 00:18:23;;;;;;;21.33;11.10;;;4.80;91.80;;;;;;5071426;28;20482;-80
2021/01/06 00:20:49;;;;;;;21.73;11.30;;;4.80;91.80;;;;;;5071810;28;20066;-81
2021/01/06 00:23:15;;;;;;;21.67;10.97;;;4.80;91.80;;;;;;5071878;28;20468;-80
2021/01/06 00:25:41;;;;;;;22.50;12.07;;;4.80;91.80;;;;;;5071816;28;20028;-79
2021/01/06 00:28:12;;;;;;;22.77;12.73;;;4.80;92.00;;;;;;5071944;28;20426;-80
2021/01/06 00:30:45;;;;;;;25.97;13.97;;;4.70;91.90;;;;;;5071788;28;20506;-81
2021/01/06 00:33:18;;;;;;;22.43;13.03;;;4.80;91.90;;;;;;5071787;28;20016;-79
2021/01/06 00:35:49;;;;;;;21.23;12.03;;;4.70;91.90;;;;;;5073077;28;20025;-79
2021/01/06 00:38:15;;;;;;;27.23;11.50;;;4.70;91.90;;;;;;5071854;28;20032;-77
2021/01/06 00:40:43;;;;;;;27.13;13.50;;;4.70;92.10;;;;;;5055178;28;20025;-78
2021/01/06 00:43:09;;;;;;;24.70;13.57;;;4.70;92.00;;;;;;5071921;28;20169;-81
2021/01/06 00:45:35;;;;;;;22.60;12.27;;;4.80;92.00;;;;;;5073075;28;20056;-80
2021/01/06 00:48:03;;;;;;;25.67;13.67;;;4.70;92.00;;;;;;5071537;28;20048;-81
2021/01/06 00:50:29;;;;;;;25.53;13.33;;;4.70;91.90;;;;;;5072408;28;20033;-81
2021/01/06 00:53:03;;;;;;;26.00;13.40;;;4.70;91.90;;;;;;5071787;28;20032;-81
2021/01/06 00:55:29;;;;;;;24.05;12.52;;;4.70;91.90;;;;;;5071650;28;20028;-81
2021/01/06 00:57:55;;;;;;;22.57;12.37;;;4.70;91.90;;;;;;5071603;28;20021;-80
2021/01/06 01:00:22;;;;;;;27.27;12.83;;;4.70;91.90;;;;;;5072866;28;20027;-81
2021/01/06 01:02:51;;;;;;;20.57;11.77;;;4.70;91.90;;;;;;5071486;28;20020;-81
2021/01/06 01:05:26;;;;;;;23.27;12.67;;;4.70;91.90;;;;;;5071737;28;20365;-81
2021/01/06 01:07:52;;;;;;;26.53;12.37;;;4.70;91.90;;;;;;5071422;28;20731;-81
2021/01/06 01:10:30;;;;;;;23.60;12.43;;;4.70;91.90;;;;;;5054837;28;20020;-80
2021/01/06 01:12:56;;;;;;;24.87;11.80;;;4.70;91.90;;;;;;5071462;28;20017;-80
2021/01/06 01:15:24;;;;;;;23.13;13.10;;;4.70;91.90;;;;;;5054986;28;20023;-83
2021/01/06 01:17:50;;;;;;;24.53;13.27;;;4.70;91.90;;;;;;5054692;28;20028;-80
2021/01/06 01:20:16;;;;;;;23.00;13.00;;;4.70;91.90;;;;;;5071414;28;20020;-76
2021/01/06 01:22:46;;;;;;;22.87;12.50;;;4.70;91.90;;;;;;5071377;28;20047;-76
2021/01/06 01:25:13;;;;;;;21.50;12.43;;;4.70;91.90;;;;;;5071465;28;20078;-76
2021/01/06 01:27:41;;;;;;;25.37;13.07;;;4.70;91.90;;;;;;5071901;28;20043;-76
2021/01/06 01:30:12;;;;;;;24.10;13.37;;;4.70;91.80;;;;;;5074860;28;20181;-82
2021/01/06 01:32:41;;;;;;;24.63;12.57;;;4.70;91.80;;;;;;5074915;28;20034;-82
2021/01/06 01:35:07;;;;;;;22.10;12.00;;;4.70;91.80;;;;;;5058623;28;20016;-81
2021/01/06 01:37:33;;;;;;;22.10;12.50;;;4.70;91.80;;;;;;5042444;28;20042;-80
2021/01/06 01:39:58;;;;;;;21.33;10.90;;;4.60;91.80;;;;;;5041515;28;20115;-82
2021/01/06 01:42:24;;;;;;;23.73;12.27;;;4.70;91.80;;;;;;5074829;28;20032;-80
2021/01/06 01:45:01;;;;;;;24.03;12.70;;;4.70;91.80;;;;;;5057956;28;20028;-79
2021/01/06 01:47:35;;;;;;;24.83;12.03;;;4.60;91.80;;;;;;5074965;28;20020;-80
2021/01/06 01:50:04;;;;;;;20.87;12.07;;;4.60;91.80;;;;;;5076356;28;20430;-78
2021/01/06 01:52:36;;;;;;;23.27;12.03;;;4.60;91.70;;;;;;5059064;28;20029;-83
2021/01/06 01:55:03;;;;;;;26.77;13.23;;;4.60;91.70;;;;;;5076830;28;20028;-80
2021/01/06 01:57:34;;;;;;;22.23;12.87;;;4.60;91.60;;;;;;5058860;28;20029;-80
2021/01/06 02:00:07;;;;;;;23.07;13.03;;;4.60;91.60;;;;;;5076883;28;20029;-80
2021/01/06 02:02:43;;;;;;;22.10;12.07;;;4.60;91.60;;;;;;5076639;28;20036;-80
2021/01/06 02:05:16;;;;;;;20.03;11.73;;;4.60;91.60;;;;;;5075905;28;20027;-80
2021/01/06 02:08:13;;;;;;;17.47;10.37;;;4.60;91.60;;;;;;5076290;28;20021;-79
2021/01/06 02:10:51;;;;;;;21.73;11.83;;;4.60;91.60;;;;;;5075703;28;20044;-79
2021/01/06 02:13:36;;;;;;;20.70;11.70;;;4.60;91.60;;;;;;5074639;28;20468;-79
2021/01/06 02:16:31;;;;;;;21.40;12.00;;;4.60;91.50;;;;;;5075891;28;20027;-81
2021/01/06 02:18:57;;;;;;;21.90;11.50;;;4.50;91.40;;;;;;5074352;28;20472;-82
2021/01/06 02:21:25;;;;;;;21.17;11.83;;;4.50;91.40;;;;;;5057591;28;20090;-80
2021/01/06 02:23:53;;;;;;;20.40;11.50;;;4.50;91.50;;;;;;5075983;28;20035;-81
2021/01/06 02:26:20;;;;;;;19.57;11.90;;;4.50;91.40;;;;;;5074284;28;20086;-82
2021/01/06 02:28:48;;;;;;;23.57;12.10;;;4.50;91.40;;;;;;5057166;28;20029;-81
2021/01/06 02:31:14;;;;;;;22.53;11.37;;;4.50;91.30;;;;;;5073858;28;20542;-79
2021/01/06 02:33:40;;;;;;;18.87;11.67;;;4.50;91.30;;;;;;5040685;28;20035;-82
2021/01/06 02:36:06;;;;;;;19.07;11.57;;;4.50;91.30;;;;;;5057181;28;20111;-81
2021/01/06 02:38:32;;;;;;;20.20;11.20;;;4.50;91.30;;;;;;5040641;28;20073;-81
2021/01/06 02:40:58;;;;;;;20.97;11.70;;;4.50;91.30;;;;;;5039672;28;20025;-81
2021/01/06 02:43:26;;;;;;;18.13;10.90;;;4.50;91.30;;;;;;5040202;28;20025;-80
2021/01/06 02:45:52;;;;;;;18.87;11.50;;;4.50;91.30;;;;;;5073601;28;20162;-81
2021/01/06 02:48:20;;;;;;;20.27;11.97;;;4.50;91.30;;;;;;5040264;28;20061;-80
2021/01/06 02:50:49;;;;;;;18.87;11.17;;;4.50;91.30;;;;;;5073287;28;20036;-79
2021/01/06 02:53:24;;;;;;;21.10;11.63;;;4.50;91.30;;;;;;5057114;28;20369;-81
2021/01/06 02:55:52;;;;;;;20.27;11.07;;;4.50;91.30;;;;;;5073674;28;20061;-81
2021/01/06 02:58:21;;;;;;;22.73;13.13;;;4.50;91.30;;;;;;5074390;28;20025;-78
2021/01/06 03:00:51;;;;;;;23.83;12.63;;;4.40;91.30;;;;;;5074542;28;20026;-82
2021/01/06 03:03:18;;;;;;;22.63;12.70;;;4.50;91.30;;;;;;5073218;28;20021;-76
2021/01/06 03:06:00;;;;;;;21.97;12.10;;;4.40;91.40;;;;;;5056646;28;20433;-76
2021/01/06 03:08:25;;;;;;;19.43;11.70;;;4.40;91.30;;;;;;5073178;28;20020;-76
2021/01/06 03:10:51;;;;;;;20.47;12.37;;;4.40;91.30;;;;;;5073267;28;20071;-75
2021/01/06 03:13:17;;;;;;;22.37;12.70;;;4.40;91.50;;;;;;5040243;28;20472;-75
2021/01/06 03:15:42;;;;;;;19.97;12.27;;;4.40;91.30;;;;;;5056629;28;20468;-76
2021/01/06 03:18:08;;;;;;;26.93;13.23;;;4.40;91.30;;;;;;5072916;28;20063;-76
2021/01/06 03:20:42;;;;;;;23.70;13.33;;;4.40;91.20;;;;;;5039970;28;20028;-76
2021/01/06 03:23:40;;;;;;;23.63;13.00;;;4.40;91.30;;;;;;5074059;28;20025;-74
2021/01/06 03:26:10;;;;;;;22.90;12.23;;;4.40;91.30;;;;;;5068350;28;20033;-76
2021/01/06 03:28:37;;;;;;;22.77;12.37;;;4.40;91.30;;;;;;5072809;28;20035;-77
2021/01/06 03:31:06;;;;;;;20.47;11.77;;;4.40;91.20;;;;;;5072556;28;20506;-76
2021/01/06 03:33:47;;;;;;;21.77;12.50;;;4.40;91.20;;;;;;5072563;28;20021;-75
2021/01/06 03:36:21;;;;;;;23.43;13.03;;;4.30;91.20;;;;;;5074164;28;20042;-75
2021/01/06 03:38:56;;;;;;;21.33;12.13;;;4.30;91.20;;;;;;5073612;28;20020;-75
2021/01/06 03:41:24;;;;;;;19.40;12.03;;;4.30;91.20;;;;;;5073856;28;20393;-76
2021/01/06 03:43:58;;;;;;;20.97;12.10;;;4.30;91.10;;;;;;5072405;28;20025;-76
2021/01/06 03:47:05;;;;;;;21.90;11.73;;;4.30;91.10;;;;;;5072324;28;20028;-76
2021/01/06 03:49:37;;;;;;;21.90;12.57;;;4.30;91.10;;;;;;5062058;28;20135;-80
2021/01/06 03:52:28;;;;;;;19.50;11.47;;;4.30;91.10;;;;;;5072631;28;20025;-81
2021/01/06 03:55:02;;;;;;;22.03;11.90;;;4.30;91.20;;;;;;5072150;28;20028;-80
2021/01/06 03:57:30;;;;;;;22.15;12.85;;;4.30;91.20;;;;;;5072224;28;20457;-82
2021/01/06 03:59:58;;;;;;;17.90;11.13;;;4.30;91.10;;;;;;5072320;28;20024;-81
2021/01/06 04:02:42;;;;;;;26.00;13.87;;;4.30;91.10;;;;;;5073517;28;20024;-80
2021/01/06 04:05:15;;;;;;;22.33;12.13;;;4.30;91.00;;;;;;5072162;28;20021;-81
2021/01/06 04:07:49;;;;;;;20.45;11.50;;;4.30;91.20;;;;;;5072100;28;20025;-81
2021/01/06 04:10:25;;;;;;;23.98;12.57;;;4.30;91.00;;;;;;5072103;28;20028;-82
2021/01/06 04:12:51;;;;;;;21.17;12.40;;;4.30;90.90;;;;;;5073302;28;20165;-81
2021/01/06 04:15:17;;;;;;;21.23;12.07;;;4.30;91.00;;;;;;5072229;28;20055;-81
2021/01/06 04:17:45;;;;;;;21.60;12.63;;;4.20;90.90;;;;;;5072036;28;20024;-82
2021/01/06 04:20:14;;;;;;;21.90;12.30;;;4.30;90.90;;;;;;5073377;28;20028;-80
2021/01/06 04:22:52;;;;;;;20.10;12.27;;;4.20;90.90;;;;;;5071970;28;20032;-79
2021/01/06 04:25:27;;;;;;;21.23;12.10;;;4.20;90.90;;;;;;5073689;28;20021;-79
2021/01/06 04:28:02;;;;;;;19.70;11.53;;;4.20;90.90;;;;;;5091792;28;20539;-80
2021/01/06 04:30:39;;;;;;;22.33;12.47;;;4.20;90.90;;;;;;5091800;28;20028;-80
2021/01/06 04:33:09;;;;;;;20.67;11.13;;;4.20;90.90;;;;;;5091815;28;20034;-82
2021/01/06 04:35:35;;;;;;;21.67;11.83;;;4.30;90.90;;;;;;5091893;28;20425;-80
2021/01/06 04:38:01;;;;;;;21.07;11.67;;;4.20;90.90;;;;;;5092030;28;20025;-80
2021/01/06 04:40:41;;;;;;;21.97;12.87;;;4.20;90.90;;;;;;5093289;28;20024;-79
2021/01/06 04:43:40;;;;;;;24.30;13.23;;;4.20;90.90;;;;;;5091978;28;20019;-79
2021/01/06 04:46:36;;;;;;;24.50;12.03;;;4.20;90.90;;;;;;5093149;28;20028;-82
2021/01/06 04:49:23;;;;;;;20.33;10.83;;;4.20;90.90;;;;;;5091766;28;20452;-80
2021/01/06 04:52:15;;;;;;;18.53;11.77;;;4.20;90.80;;;;;;5091886;28;20024;-79
2021/01/06 04:54:57;;;;;;;18.50;10.97;;;4.20;90.80;;;;;;5091750;28;20387;-79
2021/01/06 04:58:00;;;;;;;22.20;12.00;;;4.20;90.80;;;;;;5092499;28;20016;-81
2021/01/06 05:00:36;;;;;;;21.80;11.03;;;4.20;90.80;;;;;;5088657;28;20032;-79
2021/01/06 05:03:18;;;;;;;19.77;10.67;;;4.20;90.70;;;;;;5094059;28;20085;-79
2021/01/06 05:06:11;;;;;;;19.83;10.83;;;4.20;90.70;;;;;;5095481;28;20020;-79
2021/01/06 05:08:49;;;;;;;19.37;11.43;;;4.10;90.70;;;;;;5096816;28;20077;-79
2021/01/06 05:11:35;;;;;;;24.50;11.57;;;4.10;90.70;;;;;;5096774;28;20035;-79
2021/01/06 05:14:08;;;;;;;21.63;13.23;;;4.10;90.80;;;;;;5095486;28;20024;-79
2021/01/06 05:16:38;;;;;;;21.73;10.57;;;4.10;90.80;;;;;;5096782;28;20051;-79
2021/01/06 05:19:17;;;;;;;16.90;9.83;;;4.10;90.70;;;;;;5096697;28;20028;-79
2021/01/06 05:21:43;;;;;;;20.67;11.80;;;4.10;90.80;;;;;;5096699;28;20078;-79
2021/01/06 05:24:27;;;;;;;25.63;12.50;;;4.20;90.80;;;;;;5078345;28;20028;-79
2021/01/06 05:27:12;;;;;;;20.05;11.48;;;4.10;90.80;;;;;;5095212;28;20343;-80
2021/01/06 05:29:42;;;;;;;23.97;11.67;;;4.10;90.80;;;;;;5095100;28;20496;-80
2021/01/06 05:32:18;;;;;;;23.70;12.43;;;4.10;90.80;;;;;;5095143;28;20499;-79
2021/01/06 05:34:46;;;;;;;19.93;11.23;;;4.10;90.80;;;;;;5094840;28;20022;-80
2021/01/06 05:37:16;;;;;;;20.03;10.37;;;4.10;90.80;;;;;;5094911;28;20031;-82
2021/01/06 05:39:42;;;;;;;21.80;11.50;;;4.00;90.80;;;;;;5094685;28;20012;-80
2021/01/06 05:42:18;;;;;;;19.53;11.20;;;4.00;90.90;;;;;;5094973;28;20083;-80
2021/01/06 05:44:49;;;;;;;19.27;10.13;;;4.00;90.70;;;;;;5095909;28;20103;-78
2021/01/06 05:47:53;;;;;;;18.53;10.90;;;4.00;90.70;;;;;;5094611;28;20042;-80
2021/01/06 05:50:21;;;;;;;20.83;11.37;;;4.00;90.70;;;;;;5085025;28;20134;-79
2021/01/06 05:53:20;;;;;;;19.57;10.70;;;3.90;90.60;;;;;;5095865;28;20069;-80
2021/01/06 05:55:50;;;;;;;20.27;10.47;;;3.90;90.60;;;;;;5077560;28;20039;-80
2021/01/06 05:58:39;;;;;;;17.40;9.67;;;3.90;90.60;;;;;;5094489;28;20055;-79
2021/01/06 06:01:08;;;;;;;20.23;10.27;;;3.90;90.60;;;;;;5094528;28;20108;-80
2021/01/06 06:03:48;;;;;;;20.87;10.63;;;4.00;90.60;;;;;;5095756;28;20052;-80
2021/01/06 06:06:38;;;;;;;20.87;10.50;;;3.90;90.50;;;;;;5094465;28;20016;-80
2021/01/06 06:09:12;;;;;;;20.53;10.27;;;3.90;90.50;;;;;;5095648;28;20043;-79
2021/01/06 06:11:55;;;;;;;16.70;9.50;;;3.90;90.50;;;;;;5094261;28;20024;-74
2021/01/06 06:14:50;;;;;;;17.40;10.27;;;3.90;90.50;;;;;;5093279;28;20024;-75
2021/01/06 06:17:39;;;;;;;15.57;8.33;;;3.90;90.50;;;;;;5095235;28;20024;-74
2021/01/06 06:20:53;;;;;;;17.43;10.13;;;3.80;90.40;;;;;;5088808;28;20028;-75
2021/01/06 06:23:44;;;;;;;18.27;9.97;;;3.80;90.40;;;;;;5094169;28;20146;-74
2021/01/06 06:26:36;;;;;;;18.20;9.50;;;3.80;90.30;;;;;;5091971;28;20028;-74
2021/01/06 06:29:02;;;;;;;16.50;8.90;;;3.80;90.30;;;;;;5080775;28;20024;-74
2021/01/06 06:31:35;;;;;;;16.53;9.07;;;3.80;90.30;;;;;;5073457;28;20036;-74
2021/01/06 06:34:04;;;;;;;17.50;9.90;;;3.70;90.20;;;;;;5080297;28;20025;-75
2021/01/06 06:36:37;;;;;;;18.10;9.60;;;3.70;90.20;;;;;;5078325;28;20029;-75
2021/01/06 06:39:35;;;;;;;17.13;9.37;;;3.70;90.20;;;;;;5088030;28;20020;-74
2021/01/06 06:42:31;;;;;;;16.20;8.53;;;3.70;90.20;;;;;;5076759;28;20068;-74
2021/01/06 06:45:19;;;;;;;15.70;8.57;;;3.60;90.20;;;;;;5073132;28;20153;-75
2021/01/06 06:47:51;;;;;;;16.20;8.27;;;3.60;90.10;;;;;;5073785;28;20480;-74
2021/01/06 06:50:53;;;;;;;18.57;8.80;;;3.60;90.10;;;;;;5074782;28;20037;-75
2021/01/06 06:53:49;;;;;;;15.77;8.23;;;3.60;90.20;;;;;;5073286;28;20024;-75
2021/01/06 06:56:52;;;;;;;14.37;8.17;;;3.50;90.20;;;;;;5080001;28;20019;-74
2021/01/06 06:59:30;;;;;;;15.43;8.67;;;3.50;90.20;;;;;;5089953;28;20028;-75
2021/01/06 07:02:02;;;;;;;16.30;8.57;;;3.40;90.30;;;;;;5093293;28;20028;-77
2021/01/06 07:04:34;;;;;;;16.30;8.10;;;3.30;90.30;;;;;;5088677;28;20016;-75
2021/01/06 07:07:02;;;;;;;17.80;8.60;;;3.30;90.30;;;;;;5074311;28;20111;-75
2021/01/06 07:09:31;;;;;;;14.80;7.83;;;3.30;90.40;;;;;;5088229;28;20074;-75
2021/01/06 07:12:15;;;;;;;15.03;7.83;;;3.30;90.40;;;;;;5073444;28;20449;-75
2021/01/06 07:14:57;;;;;;;14.05;7.65;;;3.20;90.70;;;;;;5056119;28;20414;-75
2021/01/06 07:17:32;;;;;;;19.00;8.20;;;3.20;90.40;;;;;;5082667;28;20418;-75
2021/01/06 07:20:03;;;;;;;14.77;7.97;;;3.20;90.50;;;;;;5092926;28;20028;-75
2021/01/06 07:22:34;;;;;;;16.23;8.20;;;3.20;90.60;;;;;;5075358;28;20032;-75
2021/01/06 07:25:21;;;;;;;15.70;8.00;;;3.10;90.60;;;;;;5085054;28;20034;-75
2021/01/06 07:27:57;;;;;;;16.40;8.40;;;3.20;90.70;;;;;;5092820;28;20024;-76
2021/01/06 07:30:30;;;;;;;16.97;9.13;;;3.20;90.80;;;;;;5079598;28;20032;-75
2021/01/06 07:32:57;;;;;;;14.93;7.73;;;3.20;90.80;;;;;;5073804;28;20024;-75
2021/01/06 07:35:26;;;;;;;14.17;7.73;;;3.20;90.90;;;;;;5055983;28;20020;-75
2021/01/06 07:38:11;;;;;;;17.70;8.77;;;3.30;90.90;;;;;;5084087;28;20023;-75
2021/01/06 07:40:43;;;;;;;14.33;7.00;;;3.30;91.00;;;;;;5092469;28;20032;-75
2021/01/06 07:43:17;;;;;;;14.63;8.10;;;3.40;91.00;;;;;;5093792;28;20464;-75
2021/01/06 07:45:59;;;;;;;16.77;8.53;;;3.40;91.00;;;;;;5092621;28;20031;-75
2021/01/06 07:48:43;;;;;;;17.27;8.87;;;3.40;91.00;;;;;;5093741;28;20384;-75
2021/01/06 07:51:31;;;;;;;14.17;7.77;;;3.50;91.00;;;;;;5092528;28;20132;-75
2021/01/06 07:54:12;;;;;;;17.30;8.70;;;3.50;91.00;;;;;;5092500;28;20027;-76
2021/01/06 07:56:44;;;;;;;15.33;8.10;;;3.50;91.00;;;;;;5092384;28;20024;-76
2021/01/06 07:59:25;;;;;;;17.47;8.37;;;3.50;91.00;;;;;;5087326;28;20024;-75
2021/01/06 08:02:05;;;;;;;15.77;8.20;;;3.60;91.00;;;;;;5085683;28;20027;-75
2021/01/06 08:04:40;;;;;;;13.97;7.33;;;3.60;91.00;;;;;;5091896;28;20057;-75
2021/01/06 08:07:07;;;;;;;14.17;7.70;;;3.60;91.00;;;;;;5091974;28;20409;-76
2021/01/06 08:09:42;;;;;;;16.43;7.83;;;3.60;91.00;;;;;;5092175;28;20387;-75
2021/01/06 08:12:22;;;;;;;15.27;8.00;;;3.70;91.00;;;;;;5092038;28;20027;-75
2021/01/06 08:14:48;;;;;;;15.30;8.00;;;3.70;91.00;;;;;;5092112;28;20111;-79
2021/01/06 08:18:12;;;;;;;15.57;7.90;;;3.70;90.90;;;;;;5092043;28;20019;-79
2021/01/06 08:21:03;;;;;;;15.87;8.13;;;3.70;90.90;;;;;;5091336;28;20507;-79
2021/01/06 08:24:00;;;;;;;15.43;7.87;;;3.70;90.80;;;;;;5089790;28;20032;-79
2021/01/06 08:26:28;;;;;;;17.67;8.47;;;3.80;90.70;;;;;;5092072;28;20024;-79
2021/01/06 08:29:21;;;;;;;18.07;9.67;;;3.70;90.60;;;;;;5092085;28;20016;-79
2021/01/06 08:31:53;;;;;;;20.13;10.30;;;3.80;90.70;;;;;;5091955;28;20036;-80
2021/01/06 08:34:25;;;;;;;19.50;9.50;;;3.80;90.60;;;;;;5091893;28;20024;-80
2021/01/06 08:37:24;;;;;;;15.23;7.97;;;3.80;90.60;;;;;;5091899;28;20016;-81
2021/01/06 08:39:55;;;;;;;18.50;9.27;;;3.80;90.60;;;;;;5093051;28;20495;-80
2021/01/06 08:42:27;;;;;;;21.97;11.30;;;3.80;90.50;;;;;;5097443;28;20477;-79
2021/01/06 08:45:04;;;;;;;17.83;9.73;;;3.80;90.50;;;;;;5095943;28;20040;-80
2021/01/06 08:47:31;;;;;;;16.77;9.53;;;3.80;90.40;;;;;;5076526;28;20048;-80
2021/01/06 08:50:15;;;;;;;18.53;10.13;;;3.80;90.40;;;;;;5075208;28;20040;-80
2021/01/06 08:52:55;;;;;;;19.25;9.30;;;3.90;90.50;;;;;;5076743;28;20433;-80
2021/01/06 08:55:31;;;;;;;19.03;9.17;;;3.90;90.40;;;;;;5075255;28;20024;-80
2021/01/06 08:57:58;;;;;;;18.30;9.63;;;3.80;90.30;;;;;;5075371;28;20392;-81
2021/01/06 09:00:28;;;;;;;18.17;9.47;;;3.80;90.30;;;;;;5076438;28;20021;-81
2021/01/06 09:03:01;;;;;;;20.23;8.73;;;3.90;90.20;;;;;;5095515;28;20122;-80
2021/01/06 09:05:49;;;;;;;17.90;9.67;;;3.80;90.20;;;;;;5091035;28;20034;-80
2021/01/06 09:08:53;;;;;;;17.20;9.57;;;3.90;90.10;;;;;;5087681;28;20028;-80
2021/01/06 09:11:34;;;;;;;14.83;8.30;;;3.90;90.00;;;;;;5077294;28;20032;-80
2021/01/06 09:14:16;;;;;;;15.87;9.17;;;3.90;90.00;;;;;;5095502;28;20421;-81
2021/01/06 09:16:47;;;;;;;17.83;8.73;;;3.90;90.00;;;;;;5095327;28;20066;-81
2021/01/06 09:19:26;;;;;;;16.40;8.73;;;4.00;90.00;;;;;;5095205;28;20035;-80
2021/01/06 09:21:53;;;;;;;13.23;7.57;;;3.90;89.90;;;;;;5095410;28;20464;-80
2021/01/06 09:24:33;;;;;;;15.50;8.67;;;4.00;90.00;;;;;;5096625;28;20024;-80
2021/01/06 09:27:04;;;;;;;18.10;8.63;;;4.00;89.60;;;;;;5093762;28;20028;-80
2021/01/06 09:29:37;;;;;;;16.13;8.90;;;4.00;89.20;;;;;;5096556;28;20019;-80
2021/01/06 09:32:18;;;;;;;16.97;9.00;;;4.00;89.10;;;;;;5087792;28;20020;-80
2021/01/06 09:34:48;;;;;;;15.47;8.80;;;4.00;89.10;;;;;;5075952;28;20267;-80
2021/01/06 09:37:26;;;;;;;16.33;8.10;;;4.00;89.30;;;;;;5077562;28;20027;-80
2021/01/06 09:39:54;;;;;;;15.23;8.47;;;4.00;89.30;;;;;;5081681;28;20044;-80
2021/01/06 09:42:21;;;;;;;16.47;8.30;;;4.10;89.50;;;;;;5093115;28;20051;-81
2021/01/06 09:44:48;;;;;;;15.27;7.43;;;4.10;89.50;;;;;;5077937;28;20039;-81
2021/01/06 09:47:35;;;;;;;13.27;7.67;;;4.20;89.50;;;;;;5095966;28;20103;-80
2021/01/06 09:50:24;;;;;;;13.10;7.87;;;4.20;89.00;;;;;;5095839;28;20059;-80
2021/01/06 09:52:51;;;;;;;16.03;9.47;;;4.30;88.90;;;;;;5094753;28;20020;-80
2021/01/06 09:55:23;;;;;;;16.50;7.93;;;4.30;88.10;;;;;;5078345;28;20527;-81
2021/01/06 09:57:55;;;;;;;16.13;8.37;;;4.30;88.10;;;;;;5094537;28;20097;-80
2021/01/06 10:00:21;;;;;;;11.93;6.73;;;4.30;87.90;;;;;;5095287;28;20021;-80
2021/01/06 10:02:49;;;;;;;19.53;8.53;;;4.40;88.30;;;;;;5090929;28;20115;-80
2021/01/06 10:05:17;;;;;;;16.80;8.13;;;4.40;88.10;;;;;;5092246;28;20024;-79
2021/01/06 10:07:50;;;;;;;15.63;8.23;;;4.40;87.00;;;;;;5092061;28;20499;-81
2021/01/06 10:10:22;;;;;;;18.07;9.27;;;4.40;87.00;;;;;;5091025;28;20115;-81
2021/01/06 10:12:58;;;;;;;12.70;7.83;;;4.40;87.20;;;;;;5095525;28;20039;-81
2021/01/06 10:15:32;;;;;;;18.27;7.90;;;4.40;87.40;;;;;;5094248;28;20028;-81
2021/01/06 10:18:16;;;;;;;11.65;5.93;;;4.50;87.20;;;;;;5095294;28;20016;-80
2021/01/06 10:21:12;;;;;;;15.45;7.93;;;4.50;87.40;;;;;;5094221;28;20030;-80
2021/01/06 10:24:05;;;;;;;18.30;8.50;;;4.50;86.80;;;;;;5095515;28;20027;-81
2021/01/06 10:26:46;;;;;;;14.63;8.40;;;4.50;86.70;;;;;;5094085;28;20373;-80
2021/01/06 10:29:21;;;;;;;15.00;8.23;;;4.50;86.10;;;;;;5093861;28;20035;-80
2021/01/06 10:32:05;;;;;;;17.10;8.63;;;4.50;85.50;;;;;;5095209;28;20378;-81
2021/01/06 10:34:41;;;;;;;15.57;8.23;;;4.60;85.60;;;;;;5093792;28;20020;-81
2021/01/06 10:37:24;;;;;;;18.50;8.00;;;4.50;85.30;;;;;;5092102;28;20020;-81
2021/01/06 10:39:56;;;;;;;15.20;8.43;;;4.50;85.20;;;;;;5075504;28;20361;-81
2021/01/06 10:42:22;;;;;;;14.63;8.23;;;4.50;85.00;;;;;;5084365;28;20028;-81
2021/01/06 10:44:54;;;;;;;15.17;7.43;;;4.50;85.30;;;;;;5077911;28;20085;-81
2021/01/06 10:47:31;;;;;;;12.83;6.47;;;4.50;85.70;;;;;;5101215;28;20429;-81
2021/01/06 10:50:09;;;;;;;14.10;6.47;;;4.60;85.80;;;;;;5081632;28;20063;-79
2021/01/06 10:52:58;;;;;;;14.73;7.03;;;4.60;85.30;;;;;;5082353;28;20111;-79
2021/01/06 10:55:37;;;;;;;13.93;7.00;;;4.60;85.00;;;;;;5092183;28;20032;-81
2021/01/06 10:58:28;;;;;;;12.40;6.57;;;4.60;83.90;;;;;;5088961;28;20460;-81
2021/01/06 11:01:09;;;;;;;14.37;7.13;;;4.60;84.40;;;;;;5073940;28;20025;-81
2021/01/06 11:04:00;;;;;;;14.57;7.00;;;4.60;84.70;;;;;;5073065;28;20056;-81
2021/01/06 11:06:32;;;;;;;12.37;6.27;;;4.60;84.60;;;;;;5073043;28;20476;-81
2021/01/06 11:09:25;;;;;;;12.53;5.93;;;4.60;84.60;;;;;;5074286;28;20078;-81
2021/01/06 11:12:11;;;;;;;12.20;5.73;;;4.60;84.70;;;;;;5074049;28;20052;-81
2021/01/06 11:14:46;;;;;;;15.97;7.33;;;4.70;84.90;;;;;;5077320;28;20058;-81
2021/01/06 11:17:28;;;;;;;13.40;5.40;;;4.70;84.70;;;;;;5088295;28;20024;-80
2021/01/06 11:20:24;;;;;;;11.97;5.47;;;4.70;84.40;;;;;;5082677;28;20040;-80
2021/01/06 11:22:51;;;;;;;10.53;5.20;;;4.70;84.50;;;;;;5073037;28;20081;-81
2021/01/06 11:25:39;;;;;;;9.27;4.50;;;4.70;84.80;;;;;;5072863;28;20029;-81
2021/01/06 11:28:05;;;;;;;11.40;4.90;;;4.70;85.10;;;;;;5072617;28;20028;-81
2021/01/06 11:30:39;;;;;;;12.03;4.73;;;4.80;85.00;;;;;;5072654;28;20553;-82
2021/01/06 11:33:14;;;;;;;11.68;4.72;;;4.80;85.10;;;;;;5074141;28;20025;-81
2021/01/06 11:35:45;;;;;;;9.30;4.77;;;4.80;85.10;;;;;;5090773;28;20024;-81
2021/01/06 11:38:42;;;;;;;10.33;5.33;;;4.90;84.70;;;;;;5093053;28;20028;-81
2021/01/06 11:41:07;;;;;;;11.33;5.20;;;4.90;84.40;;;;;;5094287;28;20604;-82
2021/01/06 11:43:48;;;;;;;8.87;4.50;;;4.90;84.30;;;;;;5093922;28;20092;-81
2021/01/06 11:46:29;;;;;;;7.67;4.07;;;4.90;84.30;;;;;;5086330;28;20073;-81
2021/01/06 11:49:12;;;;;;;8.53;4.20;;;5.00;84.60;;;;;;5093835;28;20055;-82
2021/01/06 11:52:16;;;;;;;6.72;3.13;;;5.00;84.70;;;;;;5093546;28;20061;-82
2021/01/06 11:54:48;;;;;;;7.37;3.30;;;5.00;84.60;;;;;;5082893;28;20494;-82
2021/01/06 11:57:25;;;;;;;9.10;3.60;;;5.00;84.70;;;;;;5072299;28;20020;-81
2021/01/06 12:00:07;;;;;;;7.17;3.57;;;5.10;84.60;;;;;;5072487;28;20039;-81
2021/01/06 12:02:37;;;;;;;7.83;3.90;;;5.10;84.30;;;;;;5089473;28;20028;-82
2021/01/06 12:05:20;;;;;;;10.13;3.70;;;5.10;84.50;;;;;;5092671;28;20446;-81
2021/01/06 12:08:04;;;;;;;10.17;3.70;;;5.20;84.50;;;;;;5092619;28;20025;-82
2021/01/06 12:10:42;;;;;;;6.60;3.05;;;5.20;84.50;;;;;;5092104;28;20286;-81
2021/01/06 12:13:19;;;;;;;7.07;3.33;;;5.30;84.50;;;;;;5072057;28;20025;-81
2021/01/06 12:16:06;;;;;;;6.90;3.23;;;5.30;84.40;;;;;;5071607;28;20070;-81
2021/01/06 12:19:07;;;;;;;8.93;3.77;;;5.40;83.90;;;;;;5079650;28;20020;-82
2021/01/06 12:21:36;;;;;;;9.33;3.83;;;5.40;84.00;;;;;;5071127;28;20094;-82
2021/01/06 12:24:24;;;;;;;7.17;3.53;;;5.40;83.30;;;;;;5071843;28;20083;-82
2021/01/06 12:27:08;;;;;;;7.13;2.80;;;5.40;83.50;;;;;;5073882;28;20039;-81
2021/01/06 12:30:16;;;;;;;5.00;2.57;;;5.50;82.90;;;;;;5076136;28;20074;-82
2021/01/06 12:32:58;;;;;;;6.37;3.10;;;5.50;82.90;;;;;;5080194;28;20286;-82
2021/01/06 12:35:31;;;;;;;7.60;3.50;;;5.50;82.00;;;;;;5091820;28;20027;-81
2021/01/06 12:38:25;;;;;;;6.93;3.25;;;5.50;81.60;;;;;;5093607;28;20064;-75
2021/01/06 12:41:06;;;;;;;7.37;2.97;;;5.50;81.70;;;;;;5091898;28;20554;-76
2021/01/06 12:43:46;;;;;;;6.63;3.10;;;5.50;81.50;;;;;;5093056;28;20052;-76
2021/01/06 12:46:18;;;;;;;5.60;2.20;;;5.50;81.90;;;;;;5093544;28;20020;-76
2021/01/06 12:48:49;;;;;;;6.43;2.73;;;5.50;80.40;;;;;;5091808;28;20044;-75
2021/01/06 12:51:20;;;;;;;6.50;2.73;;;5.50;80.50;;;;;;5093337;28;20028;-75
2021/01/06 12:54:09;;;;;;;6.30;2.47;;;5.50;80.30;;;;;;5092191;28;20046;-75
2021/01/06 12:56:46;;;;;;;5.47;2.20;;;5.50;80.30;;;;;;5093094;28;20448;-82
2021/01/06 12:59:16;;;;;;;5.77;2.50;;;5.50;80.50;;;;;;5090579;28;20017;-75
2021/01/06 13:02:00;;;;;;;6.23;2.73;;;5.50;80.10;;;;;;5085337;28;20426;-75
2021/01/06 13:04:38;;;;;;;5.53;2.67;;;5.50;80.20;;;;;;5073970;28;20102;-75
2021/01/06 13:07:13;;;;;;;5.20;2.30;;;5.50;79.80;;;;;;5091499;28;20491;-75
2021/01/06 13:10:01;;;;;;;8.93;2.53;;;5.40;79.90;;;;;;5091757;28;20089;-75
2021/01/06 13:12:39;;;;;;;5.43;2.10;;;5.40;79.90;;;;;;5091302;28;20028;-81
2021/01/06 13:15:04;;;;;;;6.17;2.47;;;5.40;79.20;;;;;;5092142;28;20020;-82
2021/01/06 13:17:40;;;;;;;4.77;1.90;;;5.40;79.00;;;;;;5080965;28;20033;-81
2021/01/06 13:20:11;;;;;;;6.03;2.07;;;5.40;79.20;;;;;;5071372;28;20021;-82
2021/01/06 13:22:43;;;;;;;5.87;1.90;;;5.40;79.30;;;;;;5071409;28;20392;-81
2021/01/06 13:25:38;;;;;;;4.47;1.83;;;5.30;79.10;;;;;;5075146;28;20033;-82
2021/01/06 13:28:31;;;;;;;6.35;2.42;;;5.30;79.30;;;;;;5075970;28;20025;-81
2021/01/06 13:31:33;;;;;;;4.63;2.20;;;5.30;78.70;;;;;;5081139;28;20052;-81